Time;durP1;ratioP1;P1;durP2;ratioP2;P2;SDS_P1;SDS_P2;PMS_P1;PMS_P2;Temp;Humidity;BMP_temperature;BMP_pressure;BME280_temperature;BME280_humidity;BME280_pressure;Samples;Min_cycle;Max_cycle;Signal;HPM_P1;HPM_P2
2022/05/21 00:02:26;;;;;;;;;6.00;2.50;;;;;30.14;100.00;101208.16;5038908;28;51355;-48
2022/05/21 00:05:11;;;;;;;;;1.25;1.00;;;;;30.19;100.00;101224.25;5037716;28;51087;-48
2022/05/21 00:07:56;;;;;;;;;5.00;3.00;;;;;30.19;100.00;101220.59;5035866;28;51161;-48
2022/05/21 00:10:41;;;;;;;;;7.00;3.50;;;;;30.21;100.00;101219.50;5038601;28;51124;-50
2022/05/21 00:13:26;;;;;;;;;3.25;3.25;;;;;30.22;100.00;101226.72;5037688;28;51524;-47
2022/05/21 00:16:11;;;;;;;;;4.00;1.75;;;;;30.20;100.00;101211.38;5037734;28;51088;-49
2022/05/21 00:18:56;;;;;;;;;5.00;4.00;;;;;30.19;100.00;101198.66;5037749;28;51161;-48
2022/05/21 00:21:40;;;;;;;;;2.25;2.25;;;;;30.25;100.00;101198.19;5036292;28;51071;-48
2022/05/21 00:24:25;;;;;;;;;2.00;2.00;;;;;30.24;100.00;101207.41;5037100;28;51152;-49
2022/05/21 00:27:10;;;;;;;;;4.25;3.50;;;;;30.25;100.00;101206.41;5037967;28;51430;-47
2022/05/21 00:29:55;;;;;;;;;7.25;1.50;;;;;30.23;100.00;101194.69;5037156;28;51188;-48
2022/05/21 00:32:40;;;;;;;;;5.50;2.00;;;;;30.29;100.00;101196.91;5021212;28;51175;-49
2022/05/21 00:35:24;;;;;;;;;6.25;5.00;;;;;30.26;100.00;101195.31;5036719;28;51192;-46
2022/05/21 00:38:10;;;;;;;;;4.50;2.50;;;;;30.23;100.00;101192.78;5037620;28;51269;-50
2022/05/21 00:40:55;;;;;;;;;4.75;2.50;;;;;30.26;100.00;101203.53;5038635;28;51242;-48
2022/05/21 00:43:45;;;;;;;;;4.00;3.50;;;;;30.26;100.00;101206.28;5036190;28;51131;-47
2022/05/21 00:46:32;;;;;;;;;4.50;3.00;;;;;30.26;100.00;101206.28;5026287;28;51114;-47
2022/05/21 00:49:28;;;;;;;;;4.25;1.75;;;;;30.21;100.00;101193.91;5030630;28;51265;-47
2022/05/21 00:52:23;;;;;;;;;1.75;1.75;;;;;30.25;100.00;101204.53;5023457;28;51327;-47
2022/05/21 00:55:18;;;;;;;;;4.00;2.00;;;;;30.24;100.00;101199.16;5025658;28;51210;-47
2022/05/21 01:01:16;;;;;;;;;4.75;1.50;;;;;30.25;100.00;101190.81;5040650;28;51660;-47
2022/05/21 01:04:01;;;;;;;;;3.50;2.50;;;;;30.26;100.00;101191.69;5041820;28;51167;-49
2022/05/21 01:06:45;;;;;;;;;2.25;2.25;;;;;30.26;100.00;101197.19;5038392;28;51320;-48
2022/05/21 01:09:32;;;;;;;;;3.75;3.00;;;;;30.28;100.00;101182.34;5039593;28;51131;-46
2022/05/21 01:12:17;;;;;;;;;3.00;0.75;;;;;30.27;100.00;101180.59;5011241;28;51507;-49
2022/05/21 01:15:07;;;;;;;;;4.25;3.50;;;;;30.23;100.00;101164.50;5041794;28;51177;-49
2022/05/21 01:17:52;;;;;;;;;6.00;3.50;;;;;30.23;100.00;101157.09;5041837;28;51325;-48
2022/05/21 01:20:47;;;;;;;;;5.75;3.00;;;;;30.22;100.00;101158.09;5041614;28;51438;-50
2022/05/21 01:23:32;;;;;;;;;5.00;4.00;;;;;30.20;100.00;101151.91;5041719;28;51087;-47
2022/05/21 01:26:19;;;;;;;;;4.00;2.00;;;;;30.09;100.00;101141.75;5041305;28;51104;-48
2022/05/21 01:29:09;;;;;;;;;3.75;3.75;;;;;30.13;100.00;101146.03;5040024;28;51366;-51
2022/05/21 01:31:54;;;;;;;;;5.25;3.25;;;;;30.14;100.00;101155.09;5041305;28;51079;-47
2022/05/21 01:34:39;;;;;;;;;1.00;1.00;;;;;30.06;100.00;101128.28;5041882;28;51231;-51
2022/05/21 01:37:23;;;;;;;;;4.25;3.00;;;;;30.09;100.00;101130.78;5041046;28;51546;-51
2022/05/21 01:40:10;;;;;;;;;5.50;2.75;;;;;30.09;100.00;101129.94;5041226;28;51166;-52
2022/05/21 01:45:59;;;;;;;;;4.25;4.00;;;;;30.04;100.00;101119.31;5041057;28;51187;-48
2022/05/21 01:48:44;;;;;;;;;5.00;2.50;;;;;30.08;100.00;101123.53;5041358;28;51143;-48
2022/05/21 01:51:29;;;;;;;;;4.75;3.25;;;;;30.04;100.00;101130.31;5041116;28;51312;-50
2022/05/21 01:54:14;;;;;;;;;5.75;4.00;;;;;30.01;100.00;101138.75;5041258;28;51734;-49
2022/05/21 01:56:58;;;;;;;;;4.00;3.75;;;;;29.98;100.00;101136.25;5041100;28;51110;-50
2022/05/21 01:59:43;;;;;;;;;3.25;3.25;;;;;30.00;100.00;101145.25;5041379;28;51170;-48
2022/05/21 02:02:27;;;;;;;;;5.75;4.50;;;;;30.03;100.00;101138.63;5040237;28;51515;-47
2022/05/21 02:05:13;;;;;;;;;6.00;3.75;;;;;30.02;100.00;101132.28;5040088;28;51238;-50
2022/05/21 02:07:57;;;;;;;;;4.25;3.00;;;;;29.96;100.00;101128.16;5040842;28;51467;-49
2022/05/21 02:10:44;;;;;;;;;8.00;3.00;;;;;29.98;100.00;101133.53;5040380;28;51094;-48
2022/05/21 02:13:31;;;;;;;;;3.75;2.25;;;;;29.99;100.00;101129.78;5040775;28;51249;-49
2022/05/21 02:16:16;;;;;;;;;4.50;3.00;;;;;30.05;100.00;101131.16;5040809;28;51300;-50
2022/05/21 02:19:01;;;;;;;;;2.00;2.00;;;;;30.04;100.00;101143.13;5041047;28;51563;-48
2022/05/21 02:21:46;;;;;;;;;2.00;2.00;;;;;30.04;100.00;101144.03;5040475;28;51150;-49
2022/05/21 02:24:30;;;;;;;;;5.00;3.00;;;;;30.04;100.00;101146.75;5040477;28;51083;-48
2022/05/21 02:27:15;;;;;;;;;5.00;3.00;;;;;30.01;100.00;101149.75;5040167;28;51374;-49
2022/05/21 02:30:03;;;;;;;;;6.00;3.00;;;;;30.01;100.00;101147.00;5040570;28;51079;-49
2022/05/21 02:32:48;;;;;;;;;4.00;2.50;;;;;30.03;100.00;101155.09;5040350;28;51120;-49
2022/05/21 02:35:32;;;;;;;;;3.75;2.00;;;;;30.05;100.00;101170.47;5040075;28;51264;-48
2022/05/21 02:41:21;;;;;;;;;5.75;3.75;;;;;30.10;100.00;101178.31;5040273;28;51159;-48
2022/05/21 02:44:07;;;;;;;;;5.00;2.25;;;;;30.06;100.00;101165.84;5040222;28;51067;-49
2022/05/21 02:46:52;;;;;;;;;3.75;2.75;;;;;30.13;100.00;101167.97;5039786;28;51253;-48
2022/05/21 02:49:37;;;;;;;;;5.50;4.00;;;;;30.12;100.00;101166.22;5040083;28;51212;-47
2022/05/21 02:52:22;;;;;;;;;6.25;4.00;;;;;30.14;100.00;101166.97;5039712;28;51418;-48
2022/05/21 02:55:08;;;;;;;;;5.25;3.25;;;;;30.12;100.00;101162.59;5040142;28;51186;-49
2022/05/21 02:57:52;;;;;;;;;6.00;4.00;;;;;30.17;100.00;101170.44;5039914;28;51178;-50
2022/05/21 03:00:37;;;;;;;;;5.25;3.00;;;;;30.16;100.00;101166.00;5039601;28;51159;-49
2022/05/21 03:03:21;;;;;;;;;4.75;2.00;;;;;30.19;100.00;101177.59;5040045;28;51095;-49
2022/05/21 03:06:06;;;;;;;;;4.75;2.75;;;;;30.16;100.00;101157.75;5039889;28;51198;-48
2022/05/21 03:11:54;;;;;;;;;4.50;2.50;;;;;30.18;100.00;101161.22;5039206;28;51165;-48
2022/05/21 03:14:39;;;;;;;;;3.25;3.25;;;;;30.18;100.00;101173.09;5039956;28;51076;-49
2022/05/21 03:17:26;;;;;;;;;5.50;4.00;;;;;30.18;100.00;101158.47;5038887;28;51108;-46
2022/05/21 03:20:13;;;;;;;;;6.75;3.75;;;;;30.14;100.00;101161.50;5039455;28;51080;-48
2022/05/21 03:22:58;;;;;;;;;6.50;3.00;;;;;30.18;100.00;101167.59;5039421;28;51080;-49
2022/05/21 03:25:42;;;;;;;;;9.00;4.75;;;;;30.19;100.00;101171.19;5039583;28;51053;-48
2022/05/21 03:28:26;;;;;;;;;10.50;5.00;;;;;30.07;100.00;101153.88;5039306;28;51171;-50
2022/05/21 03:31:11;;;;;;;;;4.00;4.00;;;;;30.18;100.00;101172.19;5039339;28;51087;-49
2022/05/21 03:33:56;;;;;;;;;5.50;4.25;;;;;30.19;100.00;101179.44;5039338;28;51253;-49
2022/05/21 03:36:40;;;;;;;;;5.00;5.00;;;;;30.21;100.00;101180.19;5038898;28;51146;-48
2022/05/21 03:39:25;;;;;;;;;5.75;3.25;;;;;30.19;100.00;101184.94;5039652;28;52150;-50
2022/05/21 03:42:09;;;;;;;;;3.00;2.25;;;;;30.16;100.00;101174.22;5039112;28;51999;-48
2022/05/21 03:44:54;;;;;;;;;3.00;2.50;;;;;30.20;100.00;101182.09;5039152;28;51149;-49
2022/05/21 03:47:41;;;;;;;;;5.75;3.75;;;;;30.22;100.00;101177.31;5039456;28;51372;-48
2022/05/21 03:50:27;;;;;;;;;6.50;4.00;;;;;30.25;100.00;101171.59;5039151;28;51182;-47
2022/05/21 03:53:13;;;;;;;;;7.25;4.25;;;;;30.25;100.00;101176.22;5038624;28;51560;-50
2022/05/21 03:55:58;;;;;;;;;4.50;3.75;;;;;30.21;100.00;101171.97;5039214;28;51172;-49
2022/05/21 03:58:43;;;;;;;;;6.00;4.00;;;;;30.23;100.00;101178.22;5038999;28;51293;-50
2022/05/21 04:01:27;;;;;;;;;3.50;2.75;;;;;30.24;100.00;101178.06;5038713;28;51036;-48
2022/05/21 04:04:11;;;;;;;;;4.75;4.75;;;;;30.23;100.00;101175.47;5039171;28;51129;-50
2022/05/21 04:06:56;;;;;;;;;2.75;2.75;;;;;30.16;100.00;101163.25;5038902;28;51146;-48
2022/05/21 04:09:41;;;;;;;;;9.75;5.25;;;;;30.22;100.00;101176.47;5039043;28;51135;-49
2022/05/21 04:12:25;;;;;;;;;7.50;4.25;;;;;30.16;100.00;101174.22;5038896;28;51148;-49
2022/05/21 04:15:11;;;;;;;;;6.00;6.00;;;;;30.18;100.00;101181.31;5039117;28;51014;-50
2022/05/21 04:17:56;;;;;;;;;7.25;4.75;;;;;30.19;100.00;101183.06;5038839;28;51697;-50
2022/05/21 04:20:40;;;;;;;;;7.75;7.75;;;;;30.22;100.00;101180.06;5038892;28;51079;-48
2022/05/21 04:23:25;;;;;;;;;9.50;8.75;;;;;30.24;100.00;101185.44;5038789;28;51495;-48
2022/05/21 04:26:09;;;;;;;;;20.50;15.50;;;;;30.26;100.00;101186.22;5038748;28;51131;-51
2022/05/21 04:28:54;;;;;;;;;33.00;21.25;;;;;30.23;100.00;101200.16;5042563;28;51114;-48
2022/05/21 04:31:38;;;;;;;;;22.25;15.00;;;;;30.19;100.00;101198.66;5038832;28;51409;-47
2022/05/21 04:34:22;;;;;;;;;14.00;12.75;;;;;30.19;100.00;101204.13;5042393;28;51218;-50
2022/05/21 04:37:07;;;;;;;;;14.50;12.50;;;;;30.14;100.00;101194.41;5040698;28;51225;-49
2022/05/21 04:39:52;;;;;;;;;16.50;11.50;;;;;30.16;100.00;101196.19;5042264;28;51126;-49
2022/05/21 04:42:36;;;;;;;;;13.75;12.75;;;;;30.16;100.00;101196.19;5040518;28;51420;-48
2022/05/21 04:45:21;;;;;;;;;14.50;12.00;;;;;30.16;100.00;101205.25;5042417;28;51136;-49
2022/05/21 04:48:07;;;;;;;;;18.50;12.00;;;;;30.12;100.00;101207.38;5036952;28;51429;-51
2022/05/21 04:50:51;;;;;;;;;16.25;13.00;;;;;30.09;100.00;101202.13;5042221;28;51307;-49
2022/05/21 04:53:36;;;;;;;;;12.75;12.75;;;;;30.03;100.00;101197.16;5040847;28;51177;-48
2022/05/21 04:56:20;;;;;;;;;16.25;13.00;;;;;30.04;100.00;101203.50;5039042;28;51487;-48
2022/05/21 04:59:06;;;;;;;;;12.00;9.25;;;;;30.01;100.00;101203.72;5039983;28;51186;-47
2022/05/21 05:01:50;;;;;;;;;10.75;9.00;;;;;29.98;100.00;101204.84;5039865;28;51126;-52
2022/05/21 05:04:34;;;;;;;;;16.25;9.75;;;;;29.88;100.00;101198.31;5040252;28;51291;-50
2022/05/21 05:07:19;;;;;;;;;10.00;10.00;;;;;29.94;100.00;101212.44;5040344;28;51437;-49
2022/05/21 05:10:04;;;;;;;;;13.50;11.75;;;;;29.91;100.00;101214.53;5042106;28;51055;-51
2022/05/21 05:12:49;;;;;;;;;13.00;10.50;;;;;29.83;100.00;101201.41;5041769;28;51537;-48
2022/05/21 05:15:33;;;;;;;;;13.75;12.75;;;;;29.86;100.00;101206.66;5041454;28;51153;-49
2022/05/21 05:18:23;;;;;;;;;16.75;14.25;;;;;29.88;100.00;101206.53;5042092;28;51195;-49
2022/05/21 05:21:08;;;;;;;;;23.50;21.75;;;;;29.93;100.00;101212.56;5041389;28;51253;-52
2022/05/21 05:23:52;;;;;;;;;15.00;11.25;;;;;29.92;100.00;101222.63;5041194;28;51301;-48
2022/05/21 05:26:37;;;;;;;;;15.00;12.75;;;;;29.95;100.00;101225.19;5041569;28;51084;-47
2022/05/21 05:29:22;;;;;;;;;13.25;12.00;;;;;29.93;100.00;101220.78;5041762;28;51084;-50
2022/05/21 05:32:08;;;;;;;;;23.00;15.75;;;;;29.94;100.00;101219.81;5041650;28;51072;-48
2022/05/21 05:34:52;;;;;;;;;24.00;15.50;;;;;29.97;100.00;101239.66;5041064;28;51111;-50
2022/05/21 05:37:37;;;;;;;;;18.50;15.50;;;;;29.94;100.00;101241.78;5041455;28;51389;-48
2022/05/21 05:40:22;;;;;;;;;11.00;7.50;;;;;29.87;100.00;101243.19;5040596;28;51170;-48
2022/05/21 05:43:06;;;;;;;;;10.25;9.75;;;;;29.81;100.00;101248.16;5041604;28;51088;-50
2022/05/21 05:45:58;;;;;;;;;12.50;8.75;;;;;29.75;100.00;101254.13;5041145;28;51479;-46
2022/05/21 05:48:42;;;;;;;;;10.75;10.25;;;;;29.66;100.00;101258.47;5041087;28;51159;-48
2022/05/21 05:51:27;;;;;;;;;11.25;9.25;;;;;29.61;100.00;101246.09;5041095;28;51173;-50
2022/05/21 05:54:11;;;;;;;;;13.00;7.75;;;;;29.62;100.00;101253.31;5041556;28;51152;-49
2022/05/21 05:56:56;;;;;;;;;10.00;9.00;;;;;29.59;100.00;101250.81;5040978;28;51106;-49
2022/05/21 05:59:49;;;;;;;;;13.00;9.25;;;;;29.58;100.00;101244.44;5040835;28;51088;-50
2022/05/21 06:05:37;;;;;;;;;13.25;8.25;;;;;29.65;100.00;101244.84;5040670;28;51173;-48
2022/05/21 06:08:21;;;;;;;;;12.00;8.00;;;;;29.68;100.00;101242.72;5041285;28;51162;-50
2022/05/21 06:11:06;;;;;;;;;13.75;9.00;;;;;29.64;100.00;101222.03;5039615;28;51033;-48
2022/05/21 06:13:50;;;;;;;;;10.25;8.00;;;;;29.74;100.00;101235.91;5040533;28;51173;-48
2022/05/21 06:16:34;;;;;;;;;8.25;6.00;;;;;29.74;100.00;101240.53;5040764;28;51185;-50
2022/05/21 06:19:19;;;;;;;;;11.50;9.00;;;;;29.84;100.00;101245.16;5041010;28;51047;-50
2022/05/21 06:22:04;;;;;;;;;12.50;10.75;;;;;29.89;100.00;101255.81;5040236;28;51573;-49
2022/05/21 06:24:51;;;;;;;;;13.50;11.00;;;;;29.97;100.00;101257.97;5040390;28;51158;-49
2022/05/21 06:27:35;;;;;;;;;6.00;6.00;;;;;30.06;100.00;101267.34;5039140;28;51178;-50
2022/05/21 06:30:23;;;;;;;;;7.50;6.25;;;;;30.18;100.00;101268.25;5036275;28;51193;-49
2022/05/21 06:33:17;;;;;;;;;8.00;8.00;;;;;30.31;100.00;101277.28;5040335;28;51130;-48
2022/05/21 06:36:02;;;;;;;;;12.75;10.25;;;;;30.50;100.00;101273.94;5039834;28;51437;-49
2022/05/21 06:38:46;;;;;;;;;21.00;18.50;;;;;30.78;100.00;101290.09;5040087;28;51096;-49
2022/05/21 06:41:31;;;;;;;;;18.50;16.25;;;;;30.96;100.00;101299.59;5040198;28;51145;-48
2022/05/21 06:44:16;;;;;;;;;23.50;20.25;;;;;30.99;100.00;101303.97;5040393;28;51394;-49
2022/05/21 06:47:00;;;;;;;;;21.00;19.00;;;;;30.99;100.00;101309.44;5039862;28;51016;-55
2022/05/21 06:49:45;;;;;;;;;24.50;18.00;;;;;31.01;100.00;101316.56;5040561;28;51084;-52
2022/05/21 06:52:30;;;;;;;;;24.25;20.75;;;;;31.07;100.00;101323.44;5040375;28;51547;-55
2022/05/21 06:55:15;;;;;;;;;20.50;18.75;;;;;31.15;100.00;101329.22;5039335;28;51075;-54
2022/05/21 06:58:00;;;;;;;;;22.25;19.50;;;;;31.24;100.00;101327.59;5040433;28;51016;-54
2022/05/21 07:00:44;;;;;;;;;21.25;20.25;;;;;31.37;100.00;101322.81;5040061;28;51445;-56
2022/05/21 07:03:29;;;;;;;;;22.50;21.00;;;;;31.72;100.00;101322.78;5040242;28;51194;-54
2022/05/21 07:09:18;;;;;;;;;32.75;27.50;;;;;32.38;100.00;101330.03;5040426;28;51118;-53
2022/05/21 07:12:03;;;;;;;;;36.00;26.75;;;;;32.74;100.00;101331.41;5039913;28;51562;-54
2022/05/21 07:14:52;;;;;;;;;24.00;21.25;;;;;32.92;100.00;101328.06;5040013;28;51237;-56
2022/05/21 07:17:36;;;;;;;;;31.75;27.25;;;;;33.09;100.00;101321.00;5039985;28;51327;-53
2022/05/21 07:20:21;;;;;;;;;30.50;28.75;;;;;33.05;100.00;101323.19;5039583;28;51269;-53
2022/05/21 07:23:05;;;;;;;;;34.25;29.50;;;;;32.99;100.00;101314.59;5040161;28;51174;-54
2022/05/21 07:25:50;;;;;;;;;34.50;29.00;;;;;33.02;100.00;101322.56;5039709;28;51463;-54
2022/05/21 07:28:35;;;;;;;;;30.50;26.75;;;;;33.03;100.00;101299.50;5039221;28;51269;-55
2022/05/21 07:31:21;;;;;;;;;34.75;29.75;;;;;33.11;100.00;101313.47;5039660;28;51126;-57
2022/05/21 07:34:09;;;;;;;;;35.50;31.25;;;;;33.13;100.00;101311.44;5039904;28;51128;-53
2022/05/21 07:36:53;;;;;;;;;34.75;31.25;;;;;33.14;100.00;101312.31;5039631;28;51094;-55
2022/05/21 07:39:38;;;;;;;;;36.00;31.25;;;;;33.23;100.00;101317.00;5038727;28;51282;-56
2022/05/21 07:42:23;;;;;;;;;35.25;31.75;;;;;33.38;100.00;101323.03;5039610;28;51140;-55
2022/05/21 07:45:11;;;;;;;;;36.00;31.00;;;;;33.64;100.00;101328.03;5039289;28;51111;-55
2022/05/21 07:47:55;;;;;;;;;41.50;34.75;;;;;34.24;100.00;101343.63;5038900;28;51215;-56
2022/05/21 07:50:42;;;;;;;;;39.00;34.25;;;;;34.82;100.00;101361.13;5039112;28;51353;-57
2022/05/21 07:53:33;;;;;;;;;45.50;38.00;;;;;35.50;100.00;101373.84;5039307;28;51143;-55
2022/05/21 07:56:18;;;;;;;;;49.75;38.00;;;;;35.96;100.00;101385.84;5039553;28;51254;-57
2022/05/21 07:59:03;;;;;;;;;39.25;32.75;;;;;36.02;100.00;101389.88;5039763;28;51055;-56
2022/05/21 08:01:47;;;;;;;;;38.50;32.75;;;;;36.08;100.00;101385.59;5028541;28;51122;-55
2022/05/21 08:04:32;;;;;;;;;31.75;28.75;;;;;36.11;100.00;101385.25;5038759;28;51403;-56
2022/05/21 08:07:18;;;;;;;;;36.00;30.75;;;;;36.12;100.00;101390.66;5040082;28;51140;-57
2022/05/21 08:10:04;;;;;;;;;33.75;29.00;;;;;36.19;100.00;101387.25;5042014;28;51337;-56
2022/05/21 08:12:50;;;;;;;;;39.75;30.75;;;;;36.21;100.00;101394.38;5042761;28;51210;-56
2022/05/21 08:15:34;;;;;;;;;33.00;29.50;;;;;36.23;100.00;101389.53;5041978;28;51418;-56
2022/05/21 08:18:19;;;;;;;;;32.00;29.75;;;;;36.25;100.00;101394.91;5042374;28;51157;-57
2022/05/21 08:21:03;;;;;;;;;35.50;30.50;;;;;36.31;100.00;101402.59;5040098;28;51163;-57
2022/05/21 08:26:57;;;;;;;;;31.00;29.00;;;;;36.33;100.00;101408.88;5042395;28;51147;-55
2022/05/21 08:29:41;;;;;;;;;23.00;22.00;;;;;36.34;100.00;101407.84;5041435;28;51138;-55
2022/05/21 08:32:26;;;;;;;;;32.75;28.50;;;;;36.38;100.00;101405.63;5042750;28;51217;-57
2022/05/21 08:35:10;;;;;;;;;31.00;26.00;;;;;36.36;100.00;101408.53;5041744;28;51079;-55
2022/05/21 08:37:54;;;;;;;;;25.25;21.00;;;;;36.39;100.00;101405.44;5043105;28;51178;-56
2022/05/21 08:40:44;;;;;;;;;24.00;15.50;;;;;36.38;100.00;101409.25;5041321;28;51359;-56
2022/05/21 08:43:47;;;;;;;;;26.00;20.00;;;;;36.39;100.00;101422.06;5040537;28;51602;-56
2022/05/21 08:46:42;;;;;;;;;25.00;16.75;;;;;36.34;100.00;101410.59;5040742;28;51111;-57
2022/05/21 08:49:30;;;;;;;;;22.75;19.50;;;;;36.37;100.00;101424.13;5042456;28;51084;-56
2022/05/21 08:52:24;;;;;;;;;22.50;19.00;;;;;36.24;100.00;101416.22;5041898;28;51215;-56
2022/05/21 08:55:12;;;;;;;;;19.00;18.00;;;;;36.06;100.00;101412.59;5041489;28;51262;-57
2022/05/21 08:58:25;;;;;;;;;21.75;21.50;;;;;35.88;100.00;101405.06;5040962;28;51508;-56
2022/05/21 09:01:13;;;;;;;;;20.00;16.00;;;;;35.71;100.00;101417.88;5037321;28;51213;-56
2022/05/21 09:03:59;;;;;;;;;20.75;18.50;;;;;35.52;100.00;101410.56;5040378;28;51184;-56
2022/05/21 09:06:56;;;;;;;;;16.25;14.00;;;;;35.30;100.00;101398.84;5041786;28;51441;-57
2022/05/21 09:10:07;;;;;;;;;20.75;13.75;;;;;35.10;100.00;101413.75;5040927;28;51512;-57
2022/05/21 09:13:19;;;;;;;;;17.50;15.75;;;;;34.88;100.00;101411.16;5039576;28;51152;-57
2022/05/21 09:19:08;;;;;;;;;14.00;14.00;;;;;34.62;100.00;101421.97;5042191;28;51313;-56
2022/05/21 09:22:07;;;;;;;;;19.00;16.25;;;;;34.53;100.00;101418.22;5040990;28;51482;-57
2022/05/21 09:24:59;;;;;;;;;13.50;11.50;;;;;34.44;100.00;101421.88;5039929;28;51490;-56
2022/05/21 09:27:46;;;;;;;;;18.50;16.75;;;;;34.34;100.00;101426.47;5041192;28;51190;-57
2022/05/21 09:30:37;;;;;;;;;18.00;15.00;;;;;34.10;100.00;101428.63;5041331;28;51256;-56
2022/05/21 09:33:24;;;;;;;;;18.50;13.00;;;;;33.81;100.00;101432.19;5039630;28;51132;-56
2022/05/21 09:36:14;;;;;;;;;18.50;16.25;;;;;33.57;100.00;101415.09;5041513;28;51131;-57
2022/05/21 09:38:59;;;;;;;;;16.75;14.25;;;;;33.48;100.00;101434.25;5040926;28;51079;-57
2022/05/21 09:41:43;;;;;;;;;15.25;13.50;;;;;33.32;100.00;101426.47;5041446;28;51190;-55
2022/05/21 09:47:32;;;;;;;;;19.50;15.50;;;;;32.92;100.00;101436.41;5041414;28;51167;-55
2022/05/21 09:50:23;;;;;;;;;17.00;13.25;;;;;32.83;100.00;101428.09;5039516;28;51395;-57
2022/05/21 09:53:33;;;;;;;;;20.25;16.00;;;;;32.71;100.00;101432.75;5040604;28;51191;-56
2022/05/21 09:56:26;;;;;;;;;18.00;13.50;;;;;32.55;100.00;101436.84;5041389;28;51121;-56
2022/05/21 09:59:17;;;;;;;;;18.50;16.00;;;;;32.34;100.00;101427.69;5035708;28;51530;-56
2022/05/21 10:02:15;;;;;;;;;17.75;15.75;;;;;32.21;100.00;101438.84;5040568;28;51567;-56
2022/05/21 10:05:00;;;;;;;;;15.50;15.25;;;;;32.12;100.00;101437.72;5039466;28;51064;-54
2022/05/21 10:10:58;;;;;;;;;12.50;11.00;;;;;31.78;100.00;101435.94;5040557;28;51260;-55
2022/05/21 11:39:01;;;;;;;;;8.00;6.25;;;;;30.59;100.00;101332.75;5076608;28;51190;-54
2022/05/21 11:42:09;;;;;;;;;8.75;7.75;;;;;30.91;100.00;101313.72;5076896;28;51091;-56
2022/05/21 11:45:13;;;;;;;;;12.25;8.50;;;;;31.19;100.00;101302.38;5076793;28;51193;-53
2022/05/21 11:48:28;;;;;;;;;11.00;10.00;;;;;31.56;100.00;101312.16;5077047;28;51329;-56
2022/05/21 11:51:20;;;;;;;;;15.25;11.50;;;;;31.78;100.00;101311.25;5056530;28;51041;-56
2022/05/21 11:54:04;;;;;;;;;10.25;10.25;;;;;31.92;100.00;101297.19;5070198;28;51160;-54
2022/05/21 11:57:05;;;;;;;;;15.50;13.50;;;;;32.07;100.00;101283.97;5064255;28;51213;-53
2022/05/21 11:59:52;;;;;;;;;17.75;16.00;;;;;32.13;100.00;101266.06;5062888;28;51489;-55
2022/05/21 12:02:39;;;;;;;;;14.25;12.50;;;;;32.22;100.00;101256.13;5064569;28;51134;-56
2022/05/21 12:05:33;;;;;;;;;14.75;13.00;;;;;32.38;100.00;101247.41;5062185;28;51274;-56
2022/05/21 12:08:36;;;;;;;;;17.00;12.75;;;;;32.55;100.00;101241.28;5063237;28;51130;-56
2022/05/21 12:11:35;;;;;;;;;14.50;13.25;;;;;32.70;100.00;101249.19;5066315;28;51326;-54
2022/05/21 12:14:25;;;;;;;;;26.50;25.25;;;;;32.84;100.00;101245.19;5066460;28;51557;-55
2022/05/21 12:17:42;;;;;;;;;18.00;18.00;;;;;32.83;100.00;101260.00;5066056;28;51169;-55
2022/05/21 12:20:48;;;;;;;;;15.50;13.00;;;;;32.84;100.00;101259.84;5067840;28;51121;-55
2022/05/21 12:23:33;;;;;;;;;15.75;12.25;;;;;32.90;100.00;101261.16;5057349;28;51188;-56
2022/05/21 12:26:32;;;;;;;;;8.00;7.75;;;;;32.95;100.00;101269.91;5075841;28;51481;-56
2022/05/21 12:29:27;;;;;;;;;22.50;14.00;;;;;32.99;100.00;101276.00;5068121;28;51127;-54
2022/05/21 12:32:23;;;;;;;;;11.50;8.25;;;;;32.95;100.00;101280.03;5066612;28;51041;-55
2022/05/21 12:35:26;;;;;;;;;6.75;6.50;;;;;32.83;100.00;101265.50;5066863;28;51181;-55
2022/05/21 12:38:30;;;;;;;;;10.75;8.00;;;;;32.84;100.00;101289.28;5055176;28;51156;-55
2022/05/21 12:41:35;;;;;;;;;8.25;6.00;;;;;32.77;100.00;101294.44;5055141;28;51206;-55
2022/05/21 12:44:45;;;;;;;;;9.00;6.50;;;;;32.73;100.00;101288.34;5057581;28;51144;-55
2022/05/21 12:47:33;;;;;;;;;7.50;5.25;;;;;32.59;100.00;101278.53;5060147;28;51036;-54
2022/05/21 12:50:21;;;;;;;;;4.00;4.00;;;;;32.48;100.00;101275.88;5060848;28;51435;-56
2022/05/21 12:53:06;;;;;;;;;8.25;6.00;;;;;32.44;100.00;101274.41;5058537;28;51220;-57
2022/05/21 12:56:02;;;;;;;;;8.25;6.00;;;;;32.49;100.00;101274.84;5058517;28;51142;-52
2022/05/21 12:58:47;;;;;;;;;7.25;5.00;;;;;32.56;100.00;101272.44;5059229;28;51155;-55
2022/05/21 13:01:31;;;;;;;;;7.75;7.75;;;;;32.57;100.00;101254.91;5058537;28;51323;-57
2022/05/21 13:04:37;;;;;;;;;6.75;5.00;;;;;32.74;100.00;101259.78;5059771;28;51113;-56
2022/05/21 13:07:29;;;;;;;;;8.50;7.25;;;;;32.87;100.00;101242.13;5058652;28;51457;-55
2022/05/21 13:10:22;;;;;;;;;11.00;9.75;;;;;32.99;100.00;101231.91;5059312;28;52666;-57
2022/05/21 13:13:19;;;;;;;;;7.00;7.00;;;;;33.09;100.00;101224.53;5060081;28;51192;-54
2022/05/21 13:16:07;;;;;;;;;8.50;6.75;;;;;33.11;100.00;101207.84;5059490;28;51648;-56
2022/05/21 13:19:15;;;;;;;;;6.50;6.25;;;;;33.17;100.00;101190.75;5061533;28;51364;-55
2022/05/21 13:22:09;;;;;;;;;8.00;5.75;;;;;33.23;100.00;101187.41;5060341;28;51141;-56
2022/05/21 13:24:59;;;;;;;;;5.50;4.00;;;;;33.25;100.00;101188.13;5061563;28;51223;-56
2022/05/21 13:27:57;;;;;;;;;8.00;6.50;;;;;33.30;100.00;101187.69;5060977;28;51177;-55
2022/05/21 13:30:47;;;;;;;;;6.00;6.00;;;;;33.34;100.00;101180.88;5060999;28;51192;-55
2022/05/21 13:33:37;;;;;;;;;7.00;6.00;;;;;33.49;100.00;101195.16;5060197;28;51322;-56
2022/05/21 13:36:31;;;;;;;;;5.25;4.00;;;;;33.58;100.00;101199.78;5060196;28;51125;-56
2022/05/21 13:39:22;;;;;;;;;9.00;5.00;;;;;33.64;100.00;101195.59;5061508;28;51121;-56
2022/05/21 13:42:10;;;;;;;;;9.00;5.25;;;;;33.77;100.00;101196.13;5060775;28;51342;-55
2022/05/21 13:45:01;;;;;;;;;7.50;6.25;;;;;33.87;100.00;101203.56;5061207;28;51131;-55
2022/05/21 13:47:52;;;;;;;;;6.25;5.50;;;;;33.87;100.00;101198.03;5058799;28;51063;-57
2022/05/21 13:50:38;;;;;;;;;10.50;6.75;;;;;33.97;100.00;101201.69;5059933;28;51547;-55
2022/05/21 13:53:25;;;;;;;;;9.50;6.25;;;;;34.04;100.00;101202.81;5055771;28;51616;-54
2022/05/21 13:56:45;;;;;;;;;8.00;8.00;;;;;34.14;100.00;101198.16;5059337;28;51257;-54
2022/05/21 13:59:31;;;;;;;;;15.00;9.50;;;;;34.18;100.00;101192.34;5033752;28;51204;-57
2022/05/21 14:02:36;;;;;;;;;8.75;8.00;;;;;34.19;100.00;101189.41;5054112;28;51228;-55
2022/05/21 14:05:34;;;;;;;;;12.50;8.00;;;;;34.11;100.00;101192.91;5060419;28;51098;-55
2022/05/21 14:08:30;;;;;;;;;8.00;6.50;;;;;33.98;100.00;101196.00;5045766;28;51106;-57
2022/05/21 14:11:17;;;;;;;;;11.75;7.25;;;;;33.91;100.00;101185.69;5059978;28;51318;-56
2022/05/21 14:14:07;;;;;;;;;8.75;7.00;;;;;33.62;100.00;101179.16;5060110;28;51056;-56
2022/05/21 14:17:07;;;;;;;;;8.25;6.50;;;;;33.39;100.00;101180.50;5055184;28;51092;-56
2022/05/21 14:20:19;;;;;;;;;11.50;8.50;;;;;33.23;100.00;101191.00;5059947;28;51541;-56
2022/05/21 14:23:28;;;;;;;;;8.00;6.25;;;;;33.07;100.00;101193.47;5051975;28;51315;-56
2022/05/21 14:26:31;;;;;;;;;12.50;10.75;;;;;32.94;100.00;101195.59;5060053;28;51208;-55
2022/05/21 14:29:39;;;;;;;;;13.25;8.00;;;;;32.91;100.00;101183.84;5059500;28;51178;-54
2022/05/21 14:32:32;;;;;;;;;10.75;10.50;;;;;32.87;100.00;101187.91;5059885;28;51183;-54
2022/05/21 14:35:19;;;;;;;;;9.25;5.50;;;;;32.87;100.00;101192.53;5059220;28;52029;-56
2022/05/21 14:38:04;;;;;;;;;9.75;8.00;;;;;32.74;100.00;101198.28;5059679;28;51273;-55
2022/05/21 14:40:50;;;;;;;;;10.50;8.75;;;;;32.63;100.00;101204.78;5059282;28;51121;-55
2022/05/21 14:43:37;;;;;;;;;12.50;9.75;;;;;32.51;100.00;101215.00;5059705;28;51077;-55